createdAt,value
2023-03-06T00:01:29.136Z,2.30
2023-03-06T00:04:00.610Z,2.30
2023-03-06T00:06:31.935Z,2.30
2023-03-06T00:09:03.418Z,2.20
2023-03-06T00:11:34.829Z,2.10
2023-03-06T00:14:06.432Z,2.10
2023-03-06T00:16:38.028Z,2.00
2023-03-06T00:19:09.592Z,1.90
2023-03-06T00:21:42.876Z,1.90
2023-03-06T00:24:14.614Z,1.90
2023-03-06T00:26:45.958Z,1.80
2023-03-06T00:29:17.464Z,1.80
2023-03-06T00:31:48.894Z,1.70
2023-03-06T00:34:20.304Z,1.60
2023-03-06T00:36:51.633Z,1.50
2023-03-06T00:39:23.673Z,1.40
2023-03-06T00:41:55.521Z,1.40
2023-03-06T00:44:26.955Z,1.40
2023-03-06T00:46:58.286Z,1.30
2023-03-06T00:49:29.717Z,1.30
2023-03-06T00:52:01.065Z,1.40
2023-03-06T00:54:32.497Z,1.40
2023-03-06T00:57:03.946Z,1.40
2023-03-06T00:59:35.694Z,1.30
2023-03-06T01:02:07.257Z,1.30
2023-03-06T01:04:38.971Z,1.20
2023-03-06T01:07:10.436Z,1.20
2023-03-06T01:09:41.868Z,1.10
2023-03-06T01:12:13.548Z,1.00
2023-03-06T01:14:45.008Z,1.00
2023-03-06T01:17:16.458Z,1.00
2023-03-06T01:19:47.895Z,1.00
2023-03-06T01:22:19.290Z,1.00
2023-03-06T01:24:50.737Z,0.90
2023-03-06T01:27:22.402Z,0.90
2023-03-06T01:29:53.833Z,1.00
2023-03-06T01:32:25.239Z,0.90
2023-03-06T01:34:57.158Z,0.90
2023-03-06T01:37:28.838Z,0.90
2023-03-06T01:40:00.356Z,0.90
2023-03-06T01:42:32.220Z,0.90
2023-03-06T01:45:07.719Z,0.90
2023-03-06T01:47:39.172Z,0.90
2023-03-06T01:50:12.885Z,0.90
2023-03-06T01:55:28.846Z,0.70
2023-03-06T01:58:03.345Z,0.70
2023-03-06T02:00:34.756Z,0.70
2023-03-06T02:03:09.853Z,0.60
2023-03-06T02:05:42.795Z,0.70
2023-03-06T02:08:16.579Z,0.60
2023-03-06T02:10:58.829Z,0.60
2023-03-06T02:13:30.483Z,0.50
2023-03-06T02:16:02.155Z,0.60
2023-03-06T02:18:34.098Z,0.60
2023-03-06T02:21:08.322Z,0.60
2023-03-06T02:23:43.734Z,0.50
2023-03-06T02:26:40.652Z,0.50
2023-03-06T02:29:12.202Z,0.40
2023-03-06T02:31:43.907Z,0.40
2023-03-06T02:35:01.831Z,0.40
2023-03-06T02:37:33.415Z,0.30
2023-03-06T02:40:12.166Z,0.30
2023-03-06T02:42:49.110Z,0.10
2023-03-06T02:45:23.508Z,0.10
2023-03-06T02:47:54.986Z,0.00
2023-03-06T02:50:26.319Z,0.00
2023-03-06T02:52:57.952Z,-0.10
2023-03-06T02:55:29.328Z,-0.10
2023-03-06T02:58:01.193Z,-0.10
2023-03-06T03:00:33.316Z,-0.10
2023-03-06T03:03:06.211Z,-0.20
2023-03-06T03:05:37.577Z,-0.20
2023-03-06T03:08:09.102Z,-0.30
2023-03-06T03:10:40.563Z,-0.30
2023-03-06T03:13:11.971Z,-0.30
2023-03-06T03:15:43.416Z,-0.20
2023-03-06T03:18:15.073Z,-0.20
2023-03-06T03:20:46.467Z,-0.20
2023-03-06T03:23:17.909Z,-0.10
2023-03-06T03:25:49.365Z,-0.10
2023-03-06T03:28:21.488Z,0.00
2023-03-06T03:30:52.904Z,0.00
2023-03-06T03:33:24.426Z,0.00
2023-03-06T03:35:59.368Z,0.00
2023-03-06T03:38:32.083Z,-0.10
2023-03-06T03:41:04.560Z,-0.10
2023-03-06T03:43:36.118Z,-0.10
2023-03-06T03:46:07.807Z,-0.10
2023-03-06T03:48:39.224Z,-0.20
2023-03-06T03:51:12.966Z,-0.20
2023-03-06T03:53:45.061Z,-0.20
2023-03-06T03:56:16.429Z,-0.20
2023-03-06T03:58:47.842Z,-0.20
2023-03-06T04:01:19.302Z,-0.20
2023-03-06T04:03:51.241Z,-0.20
2023-03-06T04:06:22.651Z,-0.20
2023-03-06T04:08:54.041Z,-0.10
2023-03-06T04:11:25.861Z,-0.10
2023-03-06T04:13:57.229Z,-0.10
2023-03-06T04:16:28.744Z,-0.10
2023-03-06T04:19:00.097Z,-0.10
2023-03-06T04:21:31.487Z,-0.10
2023-03-06T04:24:02.879Z,-0.10
2023-03-06T04:26:34.393Z,-0.20
2023-03-06T04:29:05.778Z,-0.20
2023-03-06T04:31:37.271Z,-0.20
2023-03-06T04:34:08.840Z,-0.20
2023-03-06T04:36:42.657Z,-0.20
2023-03-06T04:39:15.876Z,-0.20
2023-03-06T04:41:48.334Z,-0.10
2023-03-06T04:44:19.688Z,-0.10
2023-03-06T04:46:51.271Z,-0.10
2023-03-06T04:49:22.812Z,-0.10
2023-03-06T04:51:54.254Z,-0.10
2023-03-06T04:54:25.631Z,-0.20
2023-03-06T04:56:57.772Z,-0.30
2023-03-06T04:59:29.200Z,-0.40
2023-03-06T05:02:00.665Z,-0.40
2023-03-06T05:04:32.145Z,-0.30
2023-03-06T05:07:03.841Z,-0.40
2023-03-06T05:09:37.696Z,-0.30
2023-03-06T05:12:10.157Z,-0.30
2023-03-06T05:14:41.897Z,-0.30
2023-03-06T05:17:14.365Z,-0.30
2023-03-06T05:19:45.712Z,-0.40
2023-03-06T05:22:17.145Z,-0.40
2023-03-06T05:24:48.552Z,-0.40
2023-03-06T05:27:19.992Z,-0.30
2023-03-06T05:29:51.354Z,-0.30
2023-03-06T05:32:23.701Z,-0.30
2023-03-06T05:34:55.329Z,-0.20
2023-03-06T05:37:27.281Z,-0.20
2023-03-06T05:39:58.758Z,-0.30
2023-03-06T05:42:32.509Z,-0.30
2023-03-06T05:45:05.129Z,-0.30
2023-03-06T05:47:36.797Z,-0.40
2023-03-06T05:50:10.545Z,-0.30
2023-03-06T05:52:42.092Z,-0.20
2023-03-06T05:55:15.497Z,-0.20
2023-03-06T05:57:46.933Z,-0.10
2023-03-06T06:00:20.121Z,-0.10
2023-03-06T06:02:51.654Z,0.00
2023-03-06T06:05:23.092Z,0.10
2023-03-06T06:07:54.483Z,0.10
2023-03-06T06:10:25.841Z,0.20
2023-03-06T06:12:57.273Z,0.20
2023-03-06T06:15:28.935Z,0.20
2023-03-06T06:18:00.736Z,0.30
2023-03-06T06:20:32.300Z,0.50
2023-03-06T06:23:03.733Z,0.50
2023-03-06T06:25:35.264Z,0.60
2023-03-06T06:28:07.448Z,0.70
2023-03-06T06:30:39.502Z,0.70
2023-03-06T06:33:10.912Z,0.90
2023-03-06T06:35:42.359Z,0.90
2023-03-06T06:38:13.813Z,1.00
2023-03-06T06:40:54.012Z,1.10
2023-03-06T06:43:18.176Z,1.10
2023-03-06T06:45:50.436Z,1.10
2023-03-06T06:48:21.991Z,1.20
2023-03-06T06:50:58.174Z,1.20
2023-03-06T06:53:29.550Z,1.30
2023-03-06T06:56:01.459Z,1.30
2023-03-06T06:58:32.824Z,1.30
2023-03-06T07:01:08.671Z,1.30
2023-03-06T07:03:40.549Z,1.40
2023-03-06T07:06:11.941Z,1.50
2023-03-06T07:08:43.313Z,1.50
2023-03-06T07:11:18.050Z,1.60
2023-03-06T07:13:49.762Z,1.60
2023-03-06T07:16:21.274Z,1.60
2023-03-06T07:18:52.963Z,1.70
2023-03-06T07:21:24.085Z,1.70
2023-03-06T07:23:57.308Z,1.70
2023-03-06T07:26:32.140Z,1.60
2023-03-06T07:29:03.880Z,1.70
2023-03-06T07:31:35.432Z,1.70
2023-03-06T07:34:06.817Z,1.80
2023-03-06T07:36:39.906Z,1.90
2023-03-06T07:39:11.679Z,2.00
2023-03-06T07:41:43.093Z,2.00
2023-03-06T07:44:14.564Z,2.00
2023-03-06T07:46:46.244Z,1.90
2023-03-06T07:49:18.118Z,1.90
2023-03-06T07:51:49.574Z,2.00
2023-03-06T07:54:21.002Z,2.00
2023-03-06T07:56:53.746Z,2.10
2023-03-06T07:59:25.814Z,2.20
2023-03-06T08:01:57.482Z,2.30
2023-03-06T08:04:30.093Z,2.30
2023-03-06T08:07:01.792Z,2.30
2023-03-06T08:09:35.522Z,2.30
2023-03-06T08:12:07.538Z,2.30
2023-03-06T08:14:40.168Z,2.40
2023-03-06T08:17:11.657Z,2.50
2023-03-06T08:19:43.143Z,2.60
2023-03-06T08:22:14.589Z,2.50
2023-03-06T08:24:46.109Z,2.60
2023-03-06T08:27:18.112Z,2.50
2023-03-06T08:29:49.608Z,2.40
2023-03-06T08:32:21.051Z,2.30
2023-03-06T08:34:52.593Z,2.20
2023-03-06T08:37:23.996Z,2.10
2023-03-06T08:39:55.447Z,2.10
2023-03-06T08:42:26.856Z,2.00
2023-03-06T08:44:58.331Z,2.10
2023-03-06T08:47:29.714Z,2.20
2023-03-06T08:50:01.438Z,2.20
2023-03-06T08:52:32.796Z,2.30
2023-03-06T08:55:05.491Z,2.40
2023-03-06T08:57:37.019Z,2.40
2023-03-06T09:00:11.701Z,2.40
2023-03-06T09:02:43.253Z,2.40
2023-03-06T09:05:14.963Z,2.40
2023-03-06T09:07:46.384Z,2.40
2023-03-06T09:10:18.652Z,2.40
2023-03-06T09:12:53.220Z,2.40
2023-03-06T09:15:30.611Z,2.50
2023-03-06T09:18:02.052Z,2.50
2023-03-06T09:20:33.592Z,2.50
2023-03-06T09:23:04.966Z,2.60
2023-03-06T09:25:36.498Z,2.60
2023-03-06T09:28:11.751Z,2.70
2023-03-06T09:30:42.668Z,2.70
2023-03-06T09:33:14.496Z,2.70
2023-03-06T09:35:50.875Z,2.70
2023-03-06T09:38:24.936Z,2.80
2023-03-06T09:41:03.212Z,2.80
2023-03-06T09:43:38.667Z,2.70
2023-03-06T09:46:19.208Z,2.80
2023-03-06T09:49:07.903Z,2.80
2023-03-06T09:51:46.490Z,2.80
2023-03-06T09:54:17.951Z,2.90
2023-03-06T09:56:51.424Z,3.00
2023-03-06T09:59:25.595Z,3.10
2023-03-06T10:02:02.767Z,3.30
2023-03-06T10:04:43.252Z,3.40
2023-03-06T10:07:18.371Z,3.50
2023-03-06T10:09:53.850Z,3.50
2023-03-06T10:12:28.537Z,3.50
2023-03-06T10:15:08.907Z,3.60
2023-03-06T10:17:44.666Z,3.50
2023-03-06T10:20:26.422Z,3.60
2023-03-06T10:23:16.194Z,3.70
2023-03-06T10:28:37.881Z,3.70
2023-03-06T10:31:12.622Z,3.70
2023-03-06T10:33:51.537Z,3.70
2023-03-06T10:36:26.883Z,3.80
2023-03-06T10:39:00.308Z,3.80
2023-03-06T10:41:34.995Z,3.90
2023-03-06T10:44:26.992Z,4.00
2023-03-06T10:47:03.074Z,4.00
2023-03-06T10:49:37.870Z,4.00
2023-03-06T10:52:21.921Z,4.10
2023-03-06T10:54:53.469Z,4.10
2023-03-06T10:57:30.119Z,4.10
2023-03-06T11:00:05.957Z,4.10
2023-03-06T11:02:40.916Z,4.20
2023-03-06T11:05:21.556Z,4.20
2023-03-06T11:07:59.086Z,4.30
2023-03-06T11:10:34.448Z,4.30
2023-03-06T11:13:10.292Z,4.30
2023-03-06T11:15:43.351Z,4.40
2023-03-06T11:18:32.706Z,4.40
2023-03-06T11:21:08.993Z,4.50
2023-03-06T11:23:43.936Z,4.60
2023-03-06T11:29:35.773Z,4.70
2023-03-06T11:32:12.504Z,4.70
2023-03-06T11:34:50.416Z,4.70
2023-03-06T11:37:32.965Z,4.80
2023-03-06T11:40:09.686Z,4.80
2023-03-06T11:42:44.006Z,4.80
2023-03-06T11:45:33.675Z,4.90
2023-03-06T11:48:12.905Z,4.90
2023-03-06T11:50:45.664Z,5.00
2023-03-06T11:53:19.548Z,5.10
2023-03-06T11:55:57.284Z,5.00
2023-03-06T11:58:47.705Z,5.10
2023-03-06T12:01:25.653Z,5.10
2023-03-06T12:07:13.195Z,5.20
2023-03-06T12:09:48.925Z,5.30
2023-03-06T12:15:40.095Z,5.30
2023-03-06T12:18:20.346Z,5.30
2023-03-06T12:20:58.350Z,5.40
2023-03-06T12:23:51.818Z,5.40
2023-03-06T12:26:37.840Z,5.50
2023-03-06T12:29:21.913Z,5.50
2023-03-06T12:32:00.998Z,5.50
2023-03-06T12:34:47.062Z,5.50
2023-03-06T12:37:26.940Z,5.40
2023-03-06T12:40:07.642Z,5.40
2023-03-06T12:42:49.591Z,5.50
2023-03-06T12:45:30.553Z,5.50
2023-03-06T12:48:02.597Z,5.50
2023-03-06T12:50:38.103Z,5.70
2023-03-06T12:53:14.722Z,5.80
2023-03-06T12:55:48.350Z,5.90
2023-03-06T12:58:50.905Z,5.80
2023-03-06T13:01:53.924Z,5.80
2023-03-06T13:04:38.898Z,5.80
2023-03-06T13:07:21.862Z,5.90
2023-03-06T13:10:09.623Z,5.80
2023-03-06T13:12:56.053Z,5.90
2023-03-06T13:15:38.287Z,6.00
2023-03-06T13:18:50.877Z,5.90
2023-03-06T13:22:00.638Z,6.00
2023-03-06T13:24:34.616Z,6.10
2023-03-06T13:27:43.730Z,6.20
2023-03-06T13:30:28.742Z,6.10
2023-03-06T13:33:07.740Z,6.10
2023-03-06T13:35:58.968Z,6.10
2023-03-06T13:39:02.894Z,6.10
2023-03-06T13:41:47.274Z,6.20
2023-03-06T13:48:05.698Z,6.20
2023-03-06T13:50:33.925Z,6.10
2023-03-06T13:53:15.006Z,6.30
2023-03-06T13:55:46.695Z,6.40
2023-03-06T13:58:28.503Z,6.50
2023-03-06T14:01:25.969Z,6.60
2023-03-06T14:04:19.952Z,6.60
2023-03-06T14:06:54.401Z,6.60
2023-03-06T14:09:32.441Z,6.60
2023-03-06T14:12:07.583Z,6.50
2023-03-06T14:14:44.224Z,6.50
2023-03-06T14:17:25.060Z,6.40
2023-03-06T14:19:59.168Z,6.40
2023-03-06T14:22:31.264Z,6.30
2023-03-06T14:25:06.000Z,6.30
2023-03-06T14:27:45.247Z,6.30
2023-03-06T14:30:20.908Z,6.40
2023-03-06T14:32:55.740Z,6.30
2023-03-06T14:35:30.569Z,6.20
2023-03-06T14:38:07.495Z,6.40
2023-03-06T14:40:43.696Z,6.60
2023-03-06T14:43:23.948Z,6.70
2023-03-06T14:45:58.068Z,6.80
2023-03-06T14:48:39.875Z,6.70
2023-03-06T14:51:17.612Z,6.60
2023-03-06T14:53:51.266Z,6.60
2023-03-06T14:56:25.057Z,6.40
2023-03-06T14:59:00.129Z,6.30
2023-03-06T15:01:35.342Z,6.20
2023-03-06T15:04:10.838Z,6.20
2023-03-06T15:06:44.867Z,6.20
2023-03-06T15:09:21.109Z,6.30
2023-03-06T15:12:00.602Z,6.30
2023-03-06T15:14:37.615Z,6.50
2023-03-06T15:17:24.326Z,6.80
2023-03-06T15:19:57.362Z,6.80
2023-03-06T15:22:32.225Z,6.90
2023-03-06T15:25:21.004Z,6.90
2023-03-06T15:27:54.313Z,6.80
2023-03-06T15:30:31.176Z,6.80
2023-03-06T15:33:22.510Z,6.80
2023-03-06T15:35:57.295Z,6.90
2023-03-06T15:38:33.510Z,6.90
2023-03-06T15:41:07.079Z,6.90
2023-03-06T15:43:40.826Z,6.90
2023-03-06T15:46:13.066Z,6.90
2023-03-06T15:48:54.599Z,6.80
2023-03-06T15:51:26.302Z,6.70
2023-03-06T15:54:09.852Z,6.70
2023-03-06T15:56:33.035Z,6.60
2023-03-06T15:59:04.907Z,6.50
2023-03-06T16:01:37.494Z,6.40
2023-03-06T16:04:09.188Z,6.40
2023-03-06T16:06:40.677Z,6.40
2023-03-06T16:09:12.994Z,6.40
2023-03-06T16:11:45.424Z,6.30
2023-03-06T16:14:21.321Z,6.40
2023-03-06T16:16:54.484Z,6.40
2023-03-06T16:19:27.951Z,6.30
2023-03-06T16:21:59.783Z,6.30
2023-03-06T16:24:31.185Z,6.20
2023-03-06T16:27:03.551Z,6.30
2023-03-06T16:29:35.120Z,6.20
2023-03-06T16:32:07.447Z,6.20
2023-03-06T16:34:39.752Z,6.20
2023-03-06T16:37:13.968Z,6.10
2023-03-06T16:39:45.987Z,6.00
2023-03-06T16:42:19.105Z,5.90
2023-03-06T16:44:51.153Z,6.00
2023-03-06T16:47:27.330Z,5.90
2023-03-06T16:50:02.005Z,5.90
2023-03-06T16:52:33.531Z,5.80
2023-03-06T16:55:05.091Z,5.80
2023-03-06T16:57:36.490Z,5.70
2023-03-06T17:00:11.273Z,5.70
2023-03-06T17:02:43.170Z,5.70
2023-03-06T17:05:14.678Z,5.60
2023-03-06T17:07:46.286Z,5.60
2023-03-06T17:10:19.676Z,5.60
2023-03-06T17:12:51.117Z,5.60
2023-03-06T17:15:23.166Z,5.50
2023-03-06T17:17:54.750Z,5.50
2023-03-06T17:20:26.364Z,5.50
2023-03-06T17:22:57.789Z,5.40
2023-03-06T17:25:29.185Z,5.30
2023-03-06T17:28:00.495Z,5.20
2023-03-06T17:30:32.017Z,5.20
2023-03-06T17:33:03.509Z,5.10
2023-03-06T17:35:37.272Z,5.10
2023-03-06T17:38:08.850Z,5.10
2023-03-06T17:40:40.242Z,5.10
2023-03-06T17:43:11.622Z,5.10
2023-03-06T17:45:43.052Z,5.10
2023-03-06T17:48:14.404Z,5.20
2023-03-06T17:50:47.286Z,5.10
2023-03-06T17:53:18.625Z,5.10
2023-03-06T17:55:50.483Z,5.10
2023-03-06T17:58:22.147Z,5.10
2023-03-06T18:00:53.702Z,5.10
2023-03-06T18:03:25.102Z,5.10
2023-03-06T18:06:03.939Z,5.20
2023-03-06T18:08:35.308Z,5.20
2023-03-06T18:11:09.550Z,5.20
2023-03-06T18:13:42.810Z,5.10
2023-03-06T18:16:16.532Z,5.10
2023-03-06T18:18:48.088Z,5.10
2023-03-06T18:21:19.417Z,5.10
2023-03-06T18:23:51.240Z,5.10
2023-03-06T18:26:23.911Z,5.10
2023-03-06T18:28:56.753Z,5.00
2023-03-06T18:31:31.755Z,5.00
2023-03-06T18:34:04.506Z,5.00
2023-03-06T18:36:36.881Z,4.90
2023-03-06T18:39:10.190Z,4.90
2023-03-06T18:41:41.880Z,4.90
2023-03-06T18:44:16.295Z,4.90
2023-03-06T18:46:47.644Z,4.80
2023-03-06T18:49:19.056Z,4.80
2023-03-06T18:51:52.110Z,4.90
2023-03-06T18:54:24.351Z,4.90
2023-03-06T18:56:56.141Z,4.90
2023-03-06T18:59:28.597Z,4.90
2023-03-06T19:01:59.965Z,4.80
2023-03-06T19:04:31.812Z,4.80
2023-03-06T19:07:03.433Z,4.80
2023-03-06T19:09:36.238Z,4.80
2023-03-06T19:12:13.748Z,4.80
2023-03-06T19:14:45.535Z,4.80
2023-03-06T19:17:17.126Z,4.80
2023-03-06T19:19:51.508Z,4.80
2023-03-06T19:22:23.649Z,4.80
2023-03-06T19:24:55.514Z,4.80
2023-03-06T19:27:27.076Z,4.80
2023-03-06T19:29:58.796Z,4.70
2023-03-06T19:32:30.194Z,4.70
2023-03-06T19:35:01.747Z,4.70
2023-03-06T19:37:34.385Z,4.70
2023-03-06T19:40:06.813Z,4.60
2023-03-06T19:42:38.193Z,4.60
2023-03-06T19:45:11.641Z,4.60
2023-03-06T19:47:43.145Z,4.60
2023-03-06T19:50:15.122Z,4.60
2023-03-06T19:52:49.290Z,4.60
2023-03-06T19:55:24.873Z,4.50
2023-03-06T19:57:56.489Z,4.50
2023-03-06T20:00:29.419Z,4.50
2023-03-06T20:03:00.769Z,4.50
2023-03-06T20:05:32.265Z,4.50
2023-03-06T20:08:04.676Z,4.40
2023-03-06T20:10:38.925Z,4.40
2023-03-06T20:13:10.392Z,4.40
2023-03-06T20:15:41.982Z,4.40
2023-03-06T20:18:13.721Z,4.50
2023-03-06T20:20:45.293Z,4.50
2023-03-06T20:23:16.806Z,4.50
2023-03-06T20:25:48.216Z,4.50
2023-03-06T20:28:19.659Z,4.50
2023-03-06T20:30:51.231Z,4.50
2023-03-06T20:33:23.071Z,4.50
2023-03-06T20:35:54.639Z,4.50
2023-03-06T20:38:31.943Z,4.50
2023-03-06T20:41:20.422Z,4.50
2023-03-06T20:43:56.313Z,4.40
2023-03-06T20:46:27.981Z,4.30
2023-03-06T20:48:59.501Z,4.30
2023-03-06T20:51:32.207Z,4.30
2023-03-06T20:54:04.386Z,4.30
2023-03-06T20:56:38.850Z,4.30
2023-03-06T20:59:11.692Z,4.30
2023-03-06T21:01:44.582Z,4.30
2023-03-06T21:04:16.511Z,4.30
2023-03-06T21:06:48.233Z,4.30
2023-03-06T21:09:19.623Z,4.40
2023-03-06T21:11:51.080Z,4.30
2023-03-06T21:14:23.013Z,4.40
2023-03-06T21:16:54.359Z,4.40
2023-03-06T21:19:26.094Z,4.40
2023-03-06T21:22:03.179Z,4.40
2023-03-06T21:24:34.565Z,4.40
2023-03-06T21:27:06.247Z,4.30
2023-03-06T21:29:44.183Z,4.30
2023-03-06T21:32:28.883Z,4.30
2023-03-06T21:35:00.457Z,4.30
2023-03-06T21:37:31.776Z,4.30
2023-03-06T21:40:06.647Z,4.30
2023-03-06T21:42:38.008Z,4.40
2023-03-06T21:45:11.931Z,4.30
2023-03-06T21:47:43.275Z,4.30
2023-03-06T21:50:15.300Z,4.30
2023-03-06T21:52:46.669Z,4.30
2023-03-06T21:55:18.338Z,4.20
2023-03-06T21:57:52.140Z,4.30
2023-03-06T22:00:25.651Z,4.30
2023-03-06T22:02:57.176Z,4.20
2023-03-06T22:05:28.588Z,4.30
2023-03-06T22:08:01.253Z,4.20
2023-03-06T22:10:32.640Z,4.20
2023-03-06T22:13:04.033Z,4.20
2023-03-06T22:15:35.483Z,4.20
2023-03-06T22:18:07.230Z,4.20
2023-03-06T22:20:40.898Z,4.20
2023-03-06T22:23:12.329Z,4.30
2023-03-06T22:25:43.780Z,4.30
2023-03-06T22:28:16.017Z,4.30
2023-03-06T22:30:47.601Z,4.30
2023-03-06T22:33:19.034Z,4.30
2023-03-06T22:35:50.491Z,4.30
2023-03-06T22:38:21.944Z,4.30
2023-03-06T22:40:54.750Z,4.30
2023-03-06T22:43:26.247Z,4.30
2023-03-06T22:46:01.985Z,4.30
2023-03-06T22:48:34.009Z,4.30
2023-03-06T22:51:07.717Z,4.30
2023-03-06T22:53:39.143Z,4.30
2023-03-06T22:56:12.760Z,4.20
2023-03-06T22:58:44.923Z,4.20
2023-03-06T23:01:18.882Z,4.20
2023-03-06T23:03:52.353Z,4.20
2023-03-06T23:06:25.523Z,4.10
2023-03-06T23:08:58.802Z,4.10
2023-03-06T23:11:31.001Z,3.90
2023-03-06T23:14:04.926Z,3.90
2023-03-06T23:16:36.514Z,3.90
2023-03-06T23:19:08.193Z,3.90
2023-03-06T23:21:39.565Z,4.00
2023-03-06T23:24:11.341Z,4.00
2023-03-06T23:26:42.840Z,4.00
2023-03-06T23:29:14.414Z,3.90
2023-03-06T23:31:45.860Z,3.90
2023-03-06T23:34:17.398Z,3.90
2023-03-06T23:36:48.892Z,3.90
2023-03-06T23:39:20.475Z,4.00
2023-03-06T23:41:51.953Z,3.90
2023-03-06T23:44:23.416Z,3.90
2023-03-06T23:46:54.721Z,4.00
2023-03-06T23:49:27.177Z,4.00
2023-03-06T23:51:58.645Z,3.90
2023-03-06T23:54:30.045Z,3.90
2023-03-06T23:56:59.825Z,3.90
2023-03-06T23:59:31.003Z,3.90
